Terminal Aerodrome Forecast
Issued by NWS

Home | Current Version | Previous Version | Text Only | Print | Product List | Glossary On
Versions: 1 2 3 4 5 6 7 8 9 10 11 12 13 14 15 16 17 18 19 20 21 22 23 24 25 26
447
FTUS44 KEWX 081139
TAFSSF
TAF
KSSF 081139Z 0812/0912 01015G27KT P6SM OVC021
     FM081600 02021G32KT P6SM OVC025
     FM082200 01014KT P6SM OVC050
     FM090500 01008KT P6SM OVC050
     FM091100 36006KT P6SM OVC080=

USA.gov is the U.S. government's official web portal to all federal, state and local government web resources and services.